Time;durP1;ratioP1;P1;durP2;ratioP2;P2;SDS_P1;SDS_P2;PMS_P1;PMS_P2;Temp;Humidity;BMP_temperature;BMP_pressure;BME280_temperature;BME280_humidity;BME280_pressure;Samples;Min_cycle;Max_cycle;Signal;HPM_P1;HPM_P2
2022/01/03 00:00:39;;;;;;;23.08;2.65;;;11.30;99.90;;;;;;4975572;28;20217;-78
2022/01/03 00:03:07;;;;;;;13.40;2.55;;;11.50;99.90;;;;;;4990596;28;20176;-78
2022/01/03 00:05:34;;;;;;;17.10;2.10;;;11.50;99.90;;;;;;4975526;28;20618;-78
2022/01/03 00:07:59;;;;;;;15.93;2.30;;;11.50;99.90;;;;;;4975624;28;20170;-78
2022/01/03 00:10:25;;;;;;;22.27;2.33;;;11.50;99.90;;;;;;4975689;28;20725;-83
2022/01/03 00:12:51;;;;;;;14.88;1.73;;;11.60;99.90;;;;;;4990543;28;20185;-79
2022/01/03 00:15:18;;;;;;;17.48;2.50;;;11.50;99.90;;;;;;4975845;28;20178;-81
2022/01/03 00:17:46;;;;;;;16.23;2.80;;;11.50;99.90;;;;;;4975391;28;20239;-79
2022/01/03 00:20:12;;;;;;;13.93;2.30;;;11.50;99.90;;;;;;4975032;28;20304;-77
2022/01/03 00:22:48;;;;;;;13.05;2.42;;;11.50;99.90;;;;;;4975307;28;20176;-77
2022/01/03 00:25:19;;;;;;;16.67;2.38;;;11.50;99.90;;;;;;4975080;28;20162;-78
2022/01/03 00:28:06;;;;;;;11.10;2.35;;;11.50;99.90;;;;;;4975387;28;20531;-79
2022/01/03 00:30:37;;;;;;;9.38;1.92;;;11.50;99.90;;;;;;4975409;28;20198;-78
2022/01/03 00:33:04;;;;;;;15.15;2.00;;;11.40;99.90;;;;;;4989795;28;20170;-86
2022/01/03 00:35:36;;;;;;;24.13;3.65;;;11.40;99.90;;;;;;4989743;28;20166;-80
2022/01/03 00:38:02;;;;;;;17.35;2.67;;;11.40;99.90;;;;;;4975022;28;20681;-78
2022/01/03 00:40:28;;;;;;;11.00;2.47;;;11.40;99.90;;;;;;4975870;28;20210;-79
2022/01/03 00:42:54;;;;;;;11.80;1.60;;;11.50;99.90;;;;;;4977741;28;20232;-78
2022/01/03 00:45:20;;;;;;;10.77;2.10;;;11.60;99.90;;;;;;4977169;28;20711;-81
2022/01/03 00:47:47;;;;;;;9.70;1.60;;;11.60;99.90;;;;;;4990838;28;20170;-78
2022/01/03 00:50:17;;;;;;;21.23;2.13;;;11.60;99.90;;;;;;4975970;28;20266;-78
2022/01/03 00:52:45;;;;;;;16.23;2.30;;;11.60;99.90;;;;;;4976351;28;20248;-79
2022/01/03 00:55:11;;;;;;;22.42;2.75;;;11.60;99.90;;;;;;4979683;28;20268;-78
2022/01/03 00:58:07;;;;;;;15.15;2.17;;;11.70;99.90;;;;;;4980960;28;20534;-79
2022/01/03 01:00:36;;;;;;;15.23;2.20;;;11.70;99.90;;;;;;4991424;28;20213;-80
2022/01/03 01:03:12;;;;;;;13.15;2.10;;;11.60;99.90;;;;;;4975745;28;20166;-79
2022/01/03 01:05:47;;;;;;;16.52;3.10;;;11.50;99.90;;;;;;4975613;28;20770;-85
2022/01/03 01:08:20;;;;;;;12.65;2.83;;;11.50;99.90;;;;;;4991168;28;20173;-79
2022/01/03 01:10:50;;;;;;;16.88;2.40;;;11.40;99.90;;;;;;4975722;28;20224;-79
2022/01/03 01:13:17;;;;;;;10.18;2.20;;;11.30;99.90;;;;;;4990767;28;20565;-78
2022/01/03 01:15:42;;;;;;;12.70;2.10;;;11.40;99.90;;;;;;4976991;28;20252;-77
2022/01/03 01:18:08;;;;;;;14.88;2.50;;;11.40;99.90;;;;;;4978530;28;20587;-79
2022/01/03 01:20:36;;;;;;;11.07;2.05;;;11.30;99.90;;;;;;4994743;28;20213;-78
2022/01/03 01:23:02;;;;;;;16.52;2.60;;;11.20;99.90;;;;;;4974862;28;20154;-79
2022/01/03 01:28:00;;;;;;;14.32;2.13;;;11.30;99.90;;;;;;4976493;28;20173;-79
2022/01/03 01:30:28;;;;;;;12.85;1.88;;;11.30;99.90;;;;;;4975557;28;20194;-79
2022/01/03 01:33:16;;;;;;;14.55;2.90;;;11.30;99.90;;;;;;4975412;28;20197;-78
2022/01/03 01:35:57;;;;;;;14.85;2.30;;;11.40;99.90;;;;;;4975191;28;20233;-78
2022/01/03 01:38:31;;;;;;;20.85;1.95;;;11.40;99.90;;;;;;4975300;28;20684;-78
2022/01/03 01:40:59;;;;;;;10.70;1.95;;;11.60;99.90;;;;;;4975183;28;20224;-79
2022/01/03 01:43:40;;;;;;;17.85;2.42;;;11.60;99.90;;;;;;4974971;28;20221;-79
2022/01/03 01:46:13;;;;;;;24.00;2.78;;;11.60;99.90;;;;;;4993595;28;20193;-82
2022/01/03 01:48:42;;;;;;;10.20;2.00;;;11.70;99.90;;;;;;4978815;28;20276;-79
2022/01/03 01:51:10;;;;;;;18.33;2.08;;;11.70;99.90;;;;;;4979099;28;20205;-79
2022/01/03 01:53:56;;;;;;;10.63;2.55;;;11.60;99.90;;;;;;4979047;28;20161;-78
2022/01/03 01:56:25;;;;;;;14.13;2.60;;;11.70;99.90;;;;;;4978993;28;20538;-80
2022/01/03 01:58:59;;;;;;;14.48;2.50;;;11.60;99.90;;;;;;4978889;28;20240;-79
2022/01/03 02:01:40;;;;;;;20.20;2.97;;;11.70;99.90;;;;;;4978302;28;20753;-78
2022/01/03 02:04:18;;;;;;;24.60;2.50;;;11.80;99.90;;;;;;4978606;28;20216;-79
2022/01/03 02:06:46;;;;;;;13.90;2.55;;;11.70;99.90;;;;;;4978098;28;20169;-80
2022/01/03 02:09:20;;;;;;;19.23;2.33;;;11.60;99.90;;;;;;4977959;28;20545;-80
2022/01/03 02:11:57;;;;;;;26.95;3.25;;;11.60;99.90;;;;;;4978717;28;20170;-80
2022/01/03 02:14:25;;;;;;;25.88;4.10;;;11.50;99.90;;;;;;4978207;28;20180;-79
2022/01/03 02:16:53;;;;;;;22.27;2.55;;;11.60;99.90;;;;;;4978058;28;20229;-79
2022/01/03 02:19:21;;;;;;;12.15;2.78;;;11.60;99.90;;;;;;4979197;28;20185;-78
2022/01/03 02:21:48;;;;;;;15.93;2.75;;;11.70;99.90;;;;;;4978018;28;20679;-80
2022/01/03 02:24:14;;;;;;;25.65;2.92;;;11.70;99.90;;;;;;4992674;28;20170;-78
2022/01/03 02:26:40;;;;;;;11.77;2.03;;;11.70;99.90;;;;;;4977800;28;20238;-78
2022/01/03 02:29:06;;;;;;;13.40;3.00;;;11.70;99.90;;;;;;4978921;28;20193;-79
2022/01/03 02:31:33;;;;;;;16.08;1.98;;;11.60;99.90;;;;;;4993167;28;20182;-78
2022/01/03 02:34:01;;;;;;;14.60;2.05;;;11.60;99.90;;;;;;4992007;28;20170;-84
2022/01/03 02:36:29;;;;;;;10.60;2.20;;;11.50;99.90;;;;;;4977122;28;20232;-78
2022/01/03 02:38:55;;;;;;;17.17;2.83;;;11.60;99.90;;;;;;4977748;28;20193;-78
2022/01/03 02:41:21;;;;;;;9.15;2.28;;;11.60;99.90;;;;;;4978066;28;20202;-79
2022/01/03 02:43:49;;;;;;;13.57;2.13;;;11.60;99.90;;;;;;4978047;28;20646;-79
2022/01/03 02:46:15;;;;;;;17.17;2.88;;;11.60;99.90;;;;;;4977556;28;20170;-79
2022/01/03 02:48:40;;;;;;;15.95;2.40;;;11.50;99.90;;;;;;4977061;28;20181;-79
2022/01/03 02:51:06;;;;;;;10.50;1.80;;;11.60;99.90;;;;;;4976137;28;20186;-79
2022/01/03 02:53:32;;;;;;;14.02;1.80;;;11.60;99.90;;;;;;4992838;28;20526;-79
2022/01/03 02:55:57;;;;;;;15.88;2.53;;;11.60;99.90;;;;;;4976776;28;20193;-77
2022/01/03 02:58:23;;;;;;;10.63;1.70;;;11.70;99.90;;;;;;4992042;28;20184;-78
2022/01/03 03:00:50;;;;;;;20.48;1.98;;;11.60;99.90;;;;;;4977005;28;20210;-87
2022/01/03 03:03:17;;;;;;;13.80;1.73;;;11.50;99.90;;;;;;4976947;28;20162;-79
2022/01/03 03:05:43;;;;;;;13.52;1.90;;;11.30;99.90;;;;;;4977283;28;20177;-80
2022/01/03 03:08:10;;;;;;;12.55;1.77;;;11.20;99.90;;;;;;4976949;28;20162;-79
2022/01/03 03:10:37;;;;;;;15.75;2.53;;;11.10;99.90;;;;;;4976412;28;20193;-79
2022/01/03 03:13:03;;;;;;;12.90;1.85;;;11.10;99.90;;;;;;4976577;28;20169;-88
2022/01/03 03:15:29;;;;;;;18.00;2.47;;;11.00;99.90;;;;;;4977124;28;20253;-78
2022/01/03 03:17:55;;;;;;;6.05;1.88;;;11.00;99.90;;;;;;4976654;28;20212;-80
2022/01/03 03:20:24;;;;;;;17.23;2.67;;;11.10;99.90;;;;;;4976649;28;20217;-82
2022/01/03 03:22:51;;;;;;;12.43;2.38;;;11.10;99.90;;;;;;4976700;28;20170;-78
2022/01/03 03:25:23;;;;;;;25.85;2.47;;;11.00;99.90;;;;;;4977001;28;20178;-78
2022/01/03 03:28:03;;;;;;;11.77;2.15;;;10.90;99.90;;;;;;4976957;28;20174;-83
2022/01/03 03:30:41;;;;;;;17.05;2.75;;;11.00;99.90;;;;;;4976225;28;20221;-80
2022/01/03 03:33:13;;;;;;;11.82;1.85;;;11.10;99.90;;;;;;4976721;28;20170;-79
2022/01/03 03:35:39;;;;;;;16.95;2.00;;;11.00;99.90;;;;;;4976637;28;20643;-80
2022/01/03 03:38:05;;;;;;;15.10;1.75;;;11.10;99.90;;;;;;4976128;28;20249;-79
2022/01/03 03:40:31;;;;;;;6.63;1.90;;;11.00;99.90;;;;;;4975887;28;20297;-77
2022/01/03 03:42:57;;;;;;;12.82;2.67;;;10.90;99.90;;;;;;4975840;28;20168;-78
2022/01/03 03:45:23;;;;;;;20.50;3.05;;;10.90;99.90;;;;;;4976193;28;20195;-78
2022/01/03 03:47:51;;;;;;;11.82;1.60;;;10.70;99.90;;;;;;4976096;28;20658;-77
2022/01/03 03:50:18;;;;;;;16.73;2.13;;;10.70;99.90;;;;;;4976327;28;20221;-83
2022/01/03 03:52:45;;;;;;;8.63;2.20;;;10.70;99.90;;;;;;4975889;28;20253;-78
2022/01/03 03:55:11;;;;;;;7.90;2.22;;;10.80;99.90;;;;;;4975794;28;20604;-79
2022/01/03 03:57:37;;;;;;;12.90;1.50;;;10.80;99.90;;;;;;4976411;28;20886;-79
2022/01/03 04:00:10;;;;;;;19.40;3.05;;;10.80;99.90;;;;;;4975948;28;20217;-82
2022/01/03 04:02:36;;;;;;;16.35;2.33;;;10.70;99.90;;;;;;4991509;28;20182;-81
2022/01/03 04:05:02;;;;;;;16.17;2.22;;;10.70;99.90;;;;;;4976878;28;20819;-78
2022/01/03 04:07:28;;;;;;;12.20;1.77;;;10.80;99.90;;;;;;4977008;28;20273;-77
2022/01/03 04:09:54;;;;;;;15.27;2.40;;;10.80;99.90;;;;;;4976973;28;20205;-79
2022/01/03 04:12:19;;;;;;;15.20;2.00;;;10.90;99.90;;;;;;4976964;28;20762;-79
2022/01/03 04:14:45;;;;;;;16.58;1.83;;;10.90;99.90;;;;;;4975993;28;20166;-78
2022/01/03 04:17:12;;;;;;;7.40;1.63;;;10.90;99.90;;;;;;4975965;28;20174;-81
2022/01/03 04:19:38;;;;;;;19.23;3.10;;;11.00;99.90;;;;;;4975348;28;20193;-78
2022/01/03 04:22:03;;;;;;;17.35;3.30;;;11.20;99.90;;;;;;4975797;28;20253;-78
2022/01/03 04:24:29;;;;;;;6.80;1.70;;;11.00;99.90;;;;;;4975941;28;20198;-77
2022/01/03 04:26:54;;;;;;;12.40;1.83;;;11.00;99.90;;;;;;4975998;28;20660;-78
2022/01/03 04:29:20;;;;;;;13.18;2.58;;;11.10;99.90;;;;;;4976155;28;20190;-78
2022/01/03 04:31:46;;;;;;;24.88;3.05;;;11.10;99.90;;;;;;4976387;28;20178;-79
2022/01/03 04:34:13;;;;;;;12.05;2.42;;;11.00;99.90;;;;;;4975966;28;20209;-78
2022/01/03 04:36:39;;;;;;;16.20;1.95;;;11.00;99.90;;;;;;4976269;28;20681;-78
2022/01/03 04:39:05;;;;;;;12.98;2.08;;;11.00;99.90;;;;;;4975211;28;20193;-80
2022/01/03 04:41:31;;;;;;;12.88;2.13;;;11.20;99.90;;;;;;4975665;28;20285;-78
2022/01/03 04:43:57;;;;;;;17.30;2.47;;;11.20;99.90;;;;;;4975191;28;20311;-78
2022/01/03 04:46:22;;;;;;;12.25;2.45;;;11.20;99.90;;;;;;4976816;28;20293;-78
2022/01/03 04:48:48;;;;;;;12.52;2.35;;;11.20;99.90;;;;;;4976370;28;20685;-82
2022/01/03 04:51:13;;;;;;;15.80;1.95;;;11.40;99.90;;;;;;4977290;28;20177;-78
2022/01/03 04:53:40;;;;;;;8.02;1.52;;;11.20;99.90;;;;;;4975659;28;20173;-80
2022/01/03 04:56:13;;;;;;;13.05;1.92;;;11.20;99.90;;;;;;4975513;28;20666;-77
2022/01/03 04:58:40;;;;;;;20.70;1.83;;;11.20;99.90;;;;;;4974477;28;20193;-79
2022/01/03 05:01:06;;;;;;;12.18;1.88;;;11.20;99.90;;;;;;4975544;28;20205;-78
2022/01/03 05:03:32;;;;;;;22.45;2.50;;;11.20;99.90;;;;;;4990200;28;20189;-78
2022/01/03 05:05:57;;;;;;;11.55;2.03;;;11.20;99.90;;;;;;4976646;28;20192;-78
2022/01/03 05:08:23;;;;;;;14.32;2.28;;;11.40;99.90;;;;;;4977038;28;20252;-78
2022/01/03 05:10:49;;;;;;;12.57;1.95;;;11.40;99.90;;;;;;4976894;28;20209;-78
2022/01/03 05:13:15;;;;;;;12.98;2.33;;;11.40;99.90;;;;;;4976964;28;20623;-78
2022/01/03 05:15:40;;;;;;;15.73;2.30;;;11.30;99.90;;;;;;4976084;28;20177;-78
2022/01/03 05:18:06;;;;;;;12.60;2.67;;;11.10;99.90;;;;;;4975736;28;20519;-79
2022/01/03 05:20:31;;;;;;;13.73;1.85;;;11.10;99.90;;;;;;4976216;28;20209;-78
2022/01/03 05:22:57;;;;;;;17.42;1.80;;;11.20;99.90;;;;;;4990330;28;20201;-78
2022/01/03 05:25:23;;;;;;;10.13;2.53;;;11.20;99.90;;;;;;4976630;28;20221;-79
2022/01/03 05:27:49;;;;;;;14.73;2.92;;;11.10;99.90;;;;;;4976846;28;20170;-79
2022/01/03 05:30:14;;;;;;;10.07;1.73;;;11.20;99.90;;;;;;4974952;28;20274;-78
2022/01/03 05:32:40;;;;;;;15.93;2.50;;;11.20;99.90;;;;;;4975774;28;20565;-78
2022/01/03 05:35:06;;;;;;;15.80;2.33;;;11.10;99.90;;;;;;4975434;28;20177;-78
2022/01/03 05:37:32;;;;;;;9.85;2.38;;;11.20;99.90;;;;;;4975833;28;20181;-78
2022/01/03 05:39:57;;;;;;;18.73;2.50;;;11.20;99.90;;;;;;4975326;28;20197;-79
2022/01/03 05:42:23;;;;;;;12.40;1.88;;;11.30;99.90;;;;;;4975697;28;20630;-87
2022/01/03 05:44:49;;;;;;;12.70;2.50;;;11.50;99.90;;;;;;4975304;28;20669;-89
2022/01/03 05:47:14;;;;;;;19.00;2.42;;;11.40;99.90;;;;;;4974467;28;20250;-78
2022/01/03 05:49:40;;;;;;;14.70;2.20;;;11.40;99.90;;;;;;4974000;28;20182;-78
2022/01/03 05:52:06;;;;;;;15.23;1.80;;;11.40;99.90;;;;;;4973844;28;20638;-78
2022/01/03 05:54:31;;;;;;;15.30;3.13;;;11.30;99.90;;;;;;4988849;28;20192;-79
2022/01/03 05:56:57;;;;;;;11.65;2.55;;;11.30;99.90;;;;;;4974037;28;20304;-79
2022/01/03 05:59:22;;;;;;;14.23;2.28;;;11.10;99.90;;;;;;4988860;28;20185;-81
2022/01/03 06:01:49;;;;;;;12.52;2.50;;;11.20;99.90;;;;;;4973803;28;20696;-78
2022/01/03 06:04:21;;;;;;;19.77;3.40;;;11.20;99.90;;;;;;4973571;28;20162;-87
2022/01/03 06:06:57;;;;;;;15.45;3.42;;;11.20;99.90;;;;;;4973827;28;20174;-79
2022/01/03 06:09:23;;;;;;;20.85;2.80;;;11.10;99.90;;;;;;4988743;28;20189;-78
2022/01/03 06:11:52;;;;;;;20.55;3.47;;;11.10;99.90;;;;;;4974106;28;20186;-79
2022/01/03 06:14:19;;;;;;;16.55;2.85;;;11.20;99.90;;;;;;4974983;28;20174;-78
2022/01/03 06:16:46;;;;;;;16.55;3.38;;;11.20;99.90;;;;;;4980171;28;20228;-80
2022/01/03 06:19:12;;;;;;;15.18;2.33;;;11.20;99.90;;;;;;4973022;28;20190;-79
2022/01/03 06:21:40;;;;;;;10.07;3.05;;;11.20;99.90;;;;;;4973190;28;20217;-79
2022/01/03 06:24:15;;;;;;;15.32;2.20;;;11.20;99.90;;;;;;4973131;28;20557;-79
2022/01/03 06:26:43;;;;;;;17.13;2.63;;;11.20;99.90;;;;;;4972852;28;20178;-79
2022/01/03 06:29:10;;;;;;;9.20;2.58;;;11.10;99.90;;;;;;4972928;28;20189;-78
2022/01/03 06:31:36;;;;;;;14.30;2.35;;;11.00;99.90;;;;;;4974825;28;20169;-79
2022/01/03 06:34:02;;;;;;;21.55;2.63;;;11.10;99.90;;;;;;4991212;28;20288;-79
2022/01/03 06:36:28;;;;;;;12.88;2.08;;;11.00;99.90;;;;;;4991398;28;20264;-79
2022/01/03 06:38:56;;;;;;;18.40;2.70;;;11.10;99.90;;;;;;4976605;28;20248;-79
2022/01/03 06:41:22;;;;;;;18.83;2.65;;;11.00;99.90;;;;;;4976542;28;20629;-79
2022/01/03 06:43:48;;;;;;;12.95;4.03;;;11.00;99.90;;;;;;4991660;28;20741;-79
2022/01/03 06:46:14;;;;;;;11.40;3.75;;;11.00;99.90;;;;;;4976632;28;20619;-81
2022/01/03 06:48:40;;;;;;;18.15;2.85;;;11.00;99.90;;;;;;4976176;28;20192;-79
2022/01/03 06:51:05;;;;;;;16.83;2.30;;;11.10;99.90;;;;;;4991207;28;20178;-80
2022/01/03 06:53:31;;;;;;;17.40;2.95;;;11.00;99.90;;;;;;4976332;28;20586;-79
2022/01/03 06:55:57;;;;;;;11.55;2.28;;;11.00;99.90;;;;;;4975888;28;20193;-80
2022/01/03 06:58:22;;;;;;;12.68;2.38;;;11.10;99.90;;;;;;4991112;28;20174;-79
2022/01/03 07:00:48;;;;;;;17.45;2.25;;;11.00;99.90;;;;;;4976363;28;20223;-78
2022/01/03 07:03:13;;;;;;;14.43;2.65;;;11.00;99.90;;;;;;4976120;28;20178;-79
2022/01/03 07:05:39;;;;;;;16.77;2.53;;;11.10;99.90;;;;;;4976056;28;20210;-78
2022/01/03 07:08:05;;;;;;;5.70;2.00;;;11.10;99.90;;;;;;4976344;28;20166;-78
2022/01/03 07:10:31;;;;;;;18.58;2.47;;;11.10;99.90;;;;;;4975795;28;20193;-80
2022/01/03 07:12:59;;;;;;;11.50;2.15;;;11.10;99.90;;;;;;4976147;28;20182;-79
2022/01/03 07:20:53;;;;;;;18.15;2.17;;;11.20;99.90;;;;;;4975582;28;20680;-82
2022/01/03 07:23:19;;;;;;;13.93;3.03;;;11.20;99.90;;;;;;4975560;28;20177;-79
2022/01/03 07:25:46;;;;;;;14.88;2.95;;;11.20;99.90;;;;;;4975558;28;20197;-82
2022/01/03 07:28:16;;;;;;;12.70;2.88;;;11.30;99.90;;;;;;4975602;28;20205;-80
2022/01/03 07:30:42;;;;;;;19.63;2.80;;;11.40;99.90;;;;;;4975364;28;20733;-79
2022/01/03 07:33:08;;;;;;;19.77;2.67;;;11.40;99.90;;;;;;4975573;28;20245;-79
2022/01/03 07:35:34;;;;;;;8.77;2.00;;;11.20;99.90;;;;;;4975718;28;20166;-84
2022/01/03 07:38:00;;;;;;;18.83;2.83;;;11.30;99.90;;;;;;4975304;28;20256;-78
2022/01/03 07:40:27;;;;;;;15.20;1.98;;;11.20;99.90;;;;;;4975233;28;20228;-79
2022/01/03 07:42:52;;;;;;;18.90;2.40;;;11.20;99.90;;;;;;4974424;28;20165;-79
2022/01/03 07:45:18;;;;;;;14.55;1.95;;;11.20;99.90;;;;;;4975289;28;20178;-78
2022/01/03 07:47:44;;;;;;;8.40;2.67;;;11.20;99.90;;;;;;4975090;28;20244;-78
2022/01/03 07:50:11;;;;;;;12.02;1.98;;;11.30;99.90;;;;;;4974872;28;20690;-79
2022/01/03 07:52:37;;;;;;;16.67;2.33;;;11.30;99.90;;;;;;4975277;28;20174;-82
2022/01/03 07:55:05;;;;;;;15.88;2.58;;;11.40;99.90;;;;;;4975033;28;20256;-89
2022/01/03 07:57:31;;;;;;;10.25;2.55;;;11.40;99.90;;;;;;4975337;28;20174;-78
2022/01/03 07:59:57;;;;;;;11.77;1.92;;;11.50;99.90;;;;;;4974818;28;20209;-82
2022/01/03 08:02:23;;;;;;;9.95;2.10;;;11.50;99.90;;;;;;4974984;28;20709;-79
2022/01/03 08:04:49;;;;;;;12.45;2.92;;;11.50;99.90;;;;;;4975210;28;20214;-86
2022/01/03 08:07:15;;;;;;;19.63;2.95;;;11.50;99.90;;;;;;4975445;28;20226;-80
2022/01/03 08:09:41;;;;;;;17.38;2.28;;;11.50;99.90;;;;;;4974804;28;20268;-79
2022/01/03 08:12:07;;;;;;;19.83;3.30;;;11.40;99.90;;;;;;4975107;28;20172;-79
2022/01/03 08:14:33;;;;;;;13.77;2.58;;;11.50;99.90;;;;;;4974449;28;20173;-79
2022/01/03 08:16:59;;;;;;;18.73;2.83;;;11.60;99.90;;;;;;4989607;28;20177;-78
2022/01/03 08:19:24;;;;;;;17.50;2.25;;;11.50;99.90;;;;;;4962641;28;20202;-78
2022/01/03 08:21:50;;;;;;;20.88;3.45;;;11.40;99.90;;;;;;4972833;28;20197;-82
2022/01/03 08:24:17;;;;;;;6.22;1.98;;;11.40;99.90;;;;;;4974390;28;20170;-78
2022/01/03 08:26:43;;;;;;;23.90;3.00;;;11.40;99.90;;;;;;4973348;28;20182;-79
2022/01/03 08:29:09;;;;;;;20.40;2.65;;;11.50;99.90;;;;;;4971380;28;20195;-79
2022/01/03 08:31:37;;;;;;;20.05;2.85;;;11.40;99.90;;;;;;4964324;28;20166;-78
2022/01/03 08:34:03;;;;;;;23.10;2.83;;;11.50;99.90;;;;;;4974869;28;20653;-88
2022/01/03 08:36:29;;;;;;;9.98;2.20;;;11.50;99.90;;;;;;4978295;28;20177;-78
2022/01/03 08:38:55;;;;;;;11.90;2.17;;;11.50;99.90;;;;;;4977897;28;20194;-79
2022/01/03 08:41:20;;;;;;;13.82;2.40;;;11.40;99.90;;;;;;4982547;28;20240;-86
2022/01/03 08:43:46;;;;;;;19.20;3.25;;;11.40;99.90;;;;;;4954943;28;20249;-78
2022/01/03 08:46:12;;;;;;;13.05;2.25;;;11.40;99.90;;;;;;4954850;28;20181;-78
2022/01/03 08:48:37;;;;;;;18.92;2.90;;;11.40;99.90;;;;;;4954258;28;20169;-90
2022/01/03 08:51:03;;;;;;;15.35;2.58;;;11.30;99.90;;;;;;4970083;28;20178;-78
2022/01/03 08:53:28;;;;;;;16.00;2.58;;;11.30;99.90;;;;;;4954805;28;20202;-78
2022/01/03 08:55:56;;;;;;;17.88;2.88;;;11.40;99.90;;;;;;4964511;28;20186;-78
2022/01/03 08:58:22;;;;;;;10.75;2.00;;;11.50;99.90;;;;;;4962872;28;20605;-80
2022/01/03 09:00:48;;;;;;;9.93;2.00;;;11.50;99.90;;;;;;4975106;28;20210;-78
2022/01/03 09:03:13;;;;;;;14.48;1.90;;;11.40;99.90;;;;;;4963854;28;20196;-85
2022/01/03 09:05:39;;;;;;;15.32;2.55;;;11.40;99.90;;;;;;4969406;28;20190;-84
2022/01/03 09:08:05;;;;;;;11.48;2.30;;;11.50;99.90;;;;;;4971125;28;20592;-79
2022/01/03 09:10:30;;;;;;;15.48;2.97;;;11.50;99.90;;;;;;4979926;28;20280;-80
2022/01/03 09:12:57;;;;;;;17.38;2.53;;;11.60;99.90;;;;;;4957376;28;20537;-83
2022/01/03 09:15:23;;;;;;;16.20;3.00;;;11.60;99.90;;;;;;4968185;28;20213;-85
2022/01/03 09:17:49;;;;;;;13.43;2.72;;;11.60;99.90;;;;;;4968929;28;20201;-84
2022/01/03 09:20:15;;;;;;;9.90;3.13;;;11.60;99.90;;;;;;4972468;28;20222;-81
2022/01/03 09:22:45;;;;;;;23.27;2.28;;;11.50;99.90;;;;;;4970744;28;20198;-86
2022/01/03 09:30:31;;;;;;;10.15;2.13;;;11.50;99.90;;;;;;4972739;28;20212;-83
2022/01/03 09:32:56;;;;;;;12.40;2.63;;;11.50;99.90;;;;;;4973456;28;20166;-79
2022/01/03 09:35:23;;;;;;;28.45;3.03;;;11.60;99.90;;;;;;4974042;28;20638;-82
2022/01/03 09:37:48;;;;;;;17.55;2.65;;;11.70;99.90;;;;;;4959288;28;20226;-85
2022/01/03 09:40:15;;;;;;;7.50;2.22;;;11.70;99.90;;;;;;4966667;28;20205;-77
2022/01/03 09:42:47;;;;;;;14.85;2.38;;;11.70;99.90;;;;;;4968790;28;20193;-80
2022/01/03 09:45:13;;;;;;;10.25;2.30;;;11.80;99.90;;;;;;4971583;28;20209;-79
2022/01/03 09:47:43;;;;;;;18.95;2.83;;;11.80;99.90;;;;;;4970539;28;20181;-85
2022/01/03 09:50:12;;;;;;;11.20;2.35;;;11.90;99.90;;;;;;4980880;28;20209;-80
2022/01/03 09:52:39;;;;;;;17.25;4.65;;;11.90;99.90;;;;;;4974182;28;20221;-77
2022/01/03 09:55:06;;;;;;;7.82;3.00;;;12.10;99.90;;;;;;4973538;28;20200;-76
2022/01/03 09:57:32;;;;;;;10.68;2.40;;;12.00;99.90;;;;;;4983855;28;20212;-77
2022/01/03 09:59:59;;;;;;;8.60;2.97;;;12.00;99.90;;;;;;4981765;28;20189;-76
2022/01/03 10:02:25;;;;;;;9.57;3.05;;;12.00;99.90;;;;;;4973614;28;20209;-77
2022/01/03 10:04:51;;;;;;;18.40;2.90;;;12.00;99.90;;;;;;4974577;28;20180;-77
2022/01/03 10:07:17;;;;;;;11.68;2.63;;;12.10;99.90;;;;;;4977531;28;20174;-83
2022/01/03 10:09:44;;;;;;;20.60;3.03;;;12.10;99.90;;;;;;4976777;28;20197;-78
2022/01/03 10:12:15;;;;;;;20.05;3.40;;;12.10;99.90;;;;;;4977356;28;20170;-80
2022/01/03 10:14:41;;;;;;;20.27;3.42;;;12.00;99.90;;;;;;4977338;28;20170;-78
2022/01/03 10:17:08;;;;;;;10.70;2.53;;;12.00;99.90;;;;;;4978384;28;20177;-77
2022/01/03 10:19:50;;;;;;;18.88;3.92;;;12.00;99.90;;;;;;4975692;28;20248;-78
2022/01/03 10:22:28;;;;;;;18.55;3.22;;;12.00;99.90;;;;;;4977563;28;20215;-84
2022/01/03 10:24:55;;;;;;;14.68;3.50;;;11.80;99.90;;;;;;4977536;28;20170;-78
2022/01/03 10:27:24;;;;;;;19.75;3.55;;;11.60;99.90;;;;;;4978716;28;20178;-78
2022/01/03 10:29:58;;;;;;;13.82;2.67;;;11.80;99.90;;;;;;4974149;28;20201;-78
2022/01/03 10:32:28;;;;;;;20.23;3.30;;;11.80;99.90;;;;;;4977181;28;20179;-84
2022/01/03 10:35:11;;;;;;;27.42;3.20;;;11.80;99.90;;;;;;4976046;28;20170;-79
2022/01/03 10:37:37;;;;;;;16.92;3.72;;;11.70;99.90;;;;;;4975343;28;20169;-83
2022/01/03 10:40:16;;;;;;;19.10;4.22;;;11.80;99.90;;;;;;4976341;28;20196;-79
2022/01/03 10:42:42;;;;;;;19.77;3.05;;;11.90;99.90;;;;;;4975936;28;20174;-84
2022/01/03 10:45:08;;;;;;;12.57;2.55;;;11.70;99.90;;;;;;4974291;28;20182;-81
2022/01/03 10:47:34;;;;;;;16.45;2.83;;;11.60;99.90;;;;;;4977334;28;20174;-80
2022/01/03 10:50:13;;;;;;;11.30;2.90;;;11.50;99.90;;;;;;4978216;28;20192;-79
2022/01/03 10:52:42;;;;;;;17.33;2.72;;;11.40;99.90;;;;;;4992419;28;20539;-80
2022/01/03 10:55:33;;;;;;;22.65;3.95;;;11.50;99.90;;;;;;4978255;28;20193;-78
2022/01/03 10:58:01;;;;;;;15.02;3.80;;;11.60;99.90;;;;;;4982738;28;20178;-78
2022/01/03 11:00:42;;;;;;;19.60;4.82;;;11.70;99.90;;;;;;4983864;28;20213;-78
2022/01/03 11:05:48;;;;;;;27.70;5.05;;;11.80;99.90;;;;;;4975086;28;20186;-80
2022/01/03 11:11:00;;;;;;;15.60;4.32;;;11.80;99.90;;;;;;4961328;28;20581;-79
2022/01/03 11:13:26;;;;;;;18.00;2.63;;;11.90;99.90;;;;;;4956893;28;20163;-79
2022/01/03 11:16:00;;;;;;;17.40;3.75;;;11.80;99.90;;;;;;4956804;29;20190;-83
2022/01/03 11:18:33;;;;;;;22.65;4.00;;;11.80;99.90;;;;;;4956424;28;20257;-79
2022/01/03 11:21:16;;;;;;;30.35;3.30;;;12.00;99.90;;;;;;4971328;28;20209;-78
2022/01/03 11:23:47;;;;;;;25.85;4.38;;;11.90;99.90;;;;;;4971049;28;20640;-83
2022/01/03 11:26:15;;;;;;;14.40;3.08;;;11.90;99.90;;;;;;4971517;28;20253;-78
2022/01/03 11:28:42;;;;;;;16.50;3.53;;;11.90;99.90;;;;;;4956817;28;20233;-79
2022/01/03 11:31:09;;;;;;;25.38;3.45;;;11.90;99.90;;;;;;4956512;29;20167;-79
2022/01/03 11:33:36;;;;;;;21.75;3.22;;;11.80;99.90;;;;;;4957154;28;20198;-80
2022/01/03 11:36:02;;;;;;;7.63;2.85;;;11.80;99.90;;;;;;4956739;28;20654;-79
2022/01/03 11:38:30;;;;;;;16.75;3.45;;;11.70;99.90;;;;;;4956452;29;20250;-82
2022/01/03 11:40:59;;;;;;;17.67;2.45;;;11.70;99.90;;;;;;4957236;29;20739;-78
2022/01/03 11:43:26;;;;;;;11.77;2.58;;;11.60;99.90;;;;;;4958398;29;20174;-89
2022/01/03 11:45:52;;;;;;;8.48;2.28;;;11.50;99.90;;;;;;4957204;29;20162;-84
2022/01/03 11:48:18;;;;;;;10.30;2.28;;;11.50;99.90;;;;;;4955795;28;20171;-79
2022/01/03 11:50:44;;;;;;;10.48;2.70;;;11.60;99.90;;;;;;4970255;28;20205;-80
2022/01/03 11:53:10;;;;;;;14.00;2.25;;;11.60;99.90;;;;;;4955944;29;20166;-79
2022/01/03 11:55:36;;;;;;;6.15;1.98;;;11.60;99.90;;;;;;4955898;29;20305;-85
2022/01/03 12:06:11;;;;;;;17.30;2.78;;;11.70;99.90;;;;;;4967629;28;20182;-79
2022/01/03 12:08:39;;;;;;;14.95;2.00;;;11.50;99.90;;;;;;4956258;29;20233;-79
2022/01/03 12:11:22;;;;;;;8.35;2.00;;;11.40;99.90;;;;;;4955766;28;20202;-88
2022/01/03 12:13:53;;;;;;;7.85;1.92;;;11.40;99.90;;;;;;4954750;29;20620;-78
2022/01/03 12:16:37;;;;;;;13.30;2.75;;;11.50;99.90;;;;;;4955779;28;20170;-79
2022/01/03 12:19:06;;;;;;;15.15;3.15;;;11.50;99.90;;;;;;4955755;28;20187;-79
2022/01/03 12:21:47;;;;;;;14.13;3.03;;;11.50;99.90;;;;;;4970291;28;20683;-79
2022/01/03 12:24:27;;;;;;;8.65;2.22;;;11.70;99.90;;;;;;4955662;29;20265;-79
2022/01/03 12:27:14;;;;;;;6.28;2.08;;;11.50;99.90;;;;;;4955684;29;20163;-80
2022/01/03 12:29:58;;;;;;;10.68;2.20;;;11.40;99.90;;;;;;4954799;28;20202;-79
2022/01/03 12:32:30;;;;;;;16.08;2.40;;;11.40;99.90;;;;;;4955181;28;20170;-84
2022/01/03 12:35:16;;;;;;;7.80;2.13;;;11.40;99.90;;;;;;4955240;28;20181;-79
2022/01/03 12:37:49;;;;;;;9.10;2.25;;;11.40;99.90;;;;;;4955078;28;20186;-78
2022/01/03 12:40:29;;;;;;;8.65;2.47;;;11.50;99.90;;;;;;4955099;29;20250;-79
2022/01/03 12:43:00;;;;;;;8.13;2.83;;;11.30;99.90;;;;;;4955141;29;20166;-79
2022/01/03 12:45:39;;;;;;;8.65;2.22;;;11.30;99.90;;;;;;4955504;29;20632;-80
2022/01/03 12:48:10;;;;;;;12.27;2.60;;;11.40;99.90;;;;;;4955326;28;20170;-79
2022/01/03 12:50:38;;;;;;;6.82;2.15;;;11.20;99.90;;;;;;4954982;28;20194;-79
2022/01/03 12:53:05;;;;;;;6.25;1.90;;;11.30;99.90;;;;;;4954998;28;20166;-81
2022/01/03 12:55:52;;;;;;;8.00;2.10;;;11.20;99.90;;;;;;4954957;29;20186;-80
2022/01/03 12:58:20;;;;;;;7.18;2.40;;;11.10;99.90;;;;;;4969638;28;20173;-78
2022/01/03 13:00:49;;;;;;;6.90;3.53;;;11.00;99.90;;;;;;4954768;28;20233;-79
2022/01/03 13:03:21;;;;;;;7.68;1.63;;;11.00;99.90;;;;;;4954719;29;20272;-79
2022/01/03 13:06:05;;;;;;;5.03;1.90;;;10.90;99.90;;;;;;4954650;28;20736;-79
2022/01/03 13:08:47;;;;;;;5.45;1.50;;;10.80;99.90;;;;;;4955240;29;20171;-79
2022/01/03 13:11:18;;;;;;;1.58;1.15;;;10.90;99.90;;;;;;4954961;28;20172;-79